Time;durP1;ratioP1;P1;durP2;ratioP2;P2;SDS_P1;SDS_P2;PMS_P1;PMS_P2;Temp;Humidity;BMP_temperature;BMP_pressure;BME280_temperature;BME280_humidity;BME280_pressure;Samples;Min_cycle;Max_cycle;Signal;HPM_P1;HPM_P2
2021/03/22 05:45:51;;;;;;;9.55;4.15;;;;;;;;;;6211884;22;884194;-81
2021/03/22 05:48:40;;;;;;;13.65;5.28;;;;;;;;;;6321366;22;20321;-80
2021/03/22 05:51:21;;;;;;;13.48;5.00;;;;;;;;;;6273558;22;20003;-82
2021/03/22 05:53:55;;;;;;;18.05;4.88;;;;;;;;;;6293405;22;20003;-80
2021/03/22 05:56:28;;;;;;;19.73;5.72;;;;;;;;;;6305997;22;20007;-80
2021/03/22 05:58:58;;;;;;;17.60;5.07;;;;;;;;;;6260557;22;20070;-80
2021/03/22 06:01:23;;;;;;;14.05;5.53;;;;;;;;;;6283583;22;20011;-82
2021/03/22 06:04:02;;;;;;;13.18;4.40;;;;;;;;;;6255695;22;20011;-80
2021/03/22 06:06:27;;;;;;;15.52;5.18;;;;;;;;;;6256442;22;20061;-80
2021/03/22 06:08:56;;;;;;;13.93;5.32;;;;;;;;;;6256729;22;20011;-80
2021/03/22 06:11:27;;;;;;;10.13;4.63;;;;;;;;;;6258088;22;20302;-80
2021/03/22 06:14:01;;;;;;;12.05;5.05;;;;;;;;;;6256449;22;20086;-80
2021/03/22 06:16:29;;;;;;;12.20;4.93;;;;;;;;;;6283266;22;20002;-80
2021/03/22 06:18:57;;;;;;;13.63;3.60;;;;;;;;;;6283721;22;20050;-79
2021/03/22 06:21:23;;;;;;;16.50;5.90;;;;;;;;;;6255558;22;20042;-80
2021/03/22 06:23:50;;;;;;;15.15;4.15;;;;;;;;;;6282736;22;20031;-80
2021/03/22 06:26:19;;;;;;;18.27;6.10;;;;;;;;;;6255797;22;20014;-79
2021/03/22 06:28:48;;;;;;;10.93;4.30;;;;;;;;;;6283365;22;20007;-81
2021/03/22 06:31:17;;;;;;;13.18;5.28;;;;;;;;;;6256255;22;20007;-79
2021/03/22 06:33:45;;;;;;;17.67;5.13;;;;;;;;;;6282574;22;20053;-81
2021/03/22 06:36:16;;;;;;;14.30;4.60;;;;;;;;;;6282962;22;20057;-80
2021/03/22 06:38:46;;;;;;;16.63;3.80;;;;;;;;;;6256014;22;20078;-80
2021/03/22 06:41:30;;;;;;;16.08;4.97;;;;;;;;;;6249956;22;20007;-80
2021/03/22 06:43:56;;;;;;;14.80;4.18;;;;;;;;;;6248418;22;20053;-79
2021/03/22 06:46:22;;;;;;;15.30;6.10;;;;;;;;;;6248820;22;20012;-79
2021/03/22 06:48:56;;;;;;;17.10;6.00;;;;;;;;;;6274922;22;20456;-82
2021/03/22 06:51:21;;;;;;;19.25;6.15;;;;;;;;;;6275809;22;20003;-82
2021/03/22 06:53:52;;;;;;;16.00;4.50;;;;;;;;;;6275464;22;20026;-81
2021/03/22 06:56:20;;;;;;;15.43;4.18;;;;;;;;;;6276645;22;19999;-81
2021/03/22 06:58:47;;;;;;;17.15;4.70;;;;;;;;;;6276374;22;20011;-81
2021/03/22 07:01:19;;;;;;;15.32;4.53;;;;;;;;;;6276898;22;20000;-81
2021/03/22 07:03:44;;;;;;;13.82;4.75;;;;;;;;;;6276312;22;20008;-81
2021/03/22 07:06:23;;;;;;;20.65;5.53;;;;;;;;;;6276158;22;20095;-81
2021/03/22 07:08:49;;;;;;;17.83;4.35;;;;;;;;;;6276797;22;20039;-82
2021/03/22 07:11:20;;;;;;;11.43;4.18;;;;;;;;;;6248887;22;20022;-81
2021/03/22 07:14:06;;;;;;;20.15;5.45;;;;;;;;;;6275877;22;20002;-82
2021/03/22 07:16:32;;;;;;;10.70;3.75;;;;;;;;;;6275159;22;20006;-82
2021/03/22 07:19:04;;;;;;;16.55;4.80;;;;;;;;;;6276838;22;20423;-81
2021/03/22 07:21:30;;;;;;;17.30;4.15;;;;;;;;;;6250087;22;20073;-82
2021/03/22 07:24:00;;;;;;;13.80;3.95;;;;;;;;;;6249400;22;20406;-81
2021/03/22 07:26:37;;;;;;;15.52;5.05;;;;;;;;;;6250082;22;20414;-81
2021/03/22 07:29:31;;;;;;;17.23;4.55;;;;;;;;;;6250130;22;20014;-81
2021/03/22 07:32:03;;;;;;;16.98;4.18;;;;;;;;;;6250196;22;20007;-81
2021/03/22 07:34:40;;;;;;;18.48;5.30;;;;;;;;;;6276756;22;20049;-81
2021/03/22 07:37:05;;;;;;;19.38;6.30;;;;;;;;;;6277746;22;20003;-81
2021/03/22 07:39:38;;;;;;;10.68;4.43;;;;;;;;;;6250812;22;20011;-82
2021/03/22 07:42:03;;;;;;;15.07;5.55;;;;;;;;;;6278097;22;20341;-82
2021/03/22 07:44:38;;;;;;;17.30;5.70;;;;;;;;;;6249919;22;20015;-81
2021/03/22 07:47:09;;;;;;;14.63;5.13;;;;;;;;;;6250313;22;20004;-81
2021/03/22 07:49:49;;;;;;;15.45;5.43;;;;;;;;;;6277832;22;20031;-81
2021/03/22 07:52:27;;;;;;;17.40;7.30;;;;;;;;;;6297117;22;19992;-82
2021/03/22 07:55:08;;;;;;;20.30;6.93;;;;;;;;;;6252488;22;20000;-82
2021/03/22 07:57:52;;;;;;;17.88;6.72;;;;;;;;;;6280300;22;19992;-82
2021/03/22 08:00:26;;;;;;;19.80;8.02;;;;;;;;;;6253364;22;20003;-82
2021/03/22 08:03:11;;;;;;;18.58;8.57;;;;;;;;;;6279617;22;20053;-82
2021/03/22 08:05:36;;;;;;;17.05;8.25;;;;;;;;;;6251357;22;19999;-81
2021/03/22 08:08:04;;;;;;;17.90;8.13;;;;;;;;;;6279479;22;20022;-82
2021/03/22 08:10:40;;;;;;;21.05;7.38;;;;;;;;;;6279052;22;20026;-81
2021/03/22 08:13:08;;;;;;;23.80;8.10;;;;;;;;;;6252380;22;19999;-83
2021/03/22 08:15:50;;;;;;;19.05;7.60;;;;;;;;;;6278167;22;20447;-82
2021/03/22 08:18:34;;;;;;;24.27;8.20;;;;;;;;;;6278945;22;20007;-83
2021/03/22 08:21:29;;;;;;;16.45;5.97;;;;;;;;;;6251386;22;20000;-84
2021/03/22 08:26:25;;;;;;;19.88;7.35;;;;;;;;;;5107526;27;20345;-83
2021/03/22 08:29:03;;;;;;;17.73;7.40;;;;;;;;;;5093485;28;20035;-83
2021/03/22 08:31:49;;;;;;;21.35;8.25;;;;;;;;;;5103141;28;20035;-83
2021/03/22 08:34:33;;;;;;;18.17;6.07;;;;;;;;;;5086009;28;20029;-83
2021/03/22 08:37:12;;;;;;;21.00;6.38;;;;;;;;;;5100916;28;20470;-83
2021/03/22 08:39:41;;;;;;;32.83;13.80;;;;;;;;;;5089839;28;21241;-85
2021/03/22 08:42:24;;;;;;;27.27;11.10;;;;;;;;;;5094547;28;20107;-83
2021/03/22 08:44:53;;;;;;;23.30;7.85;;;;;;;;;;5092114;28;20423;-83
2021/03/22 08:47:36;;;;;;;23.83;6.88;;;;;;;;;;5110904;27;20041;-83
2021/03/22 08:50:05;;;;;;;16.73;6.72;;;;;;;;;;5103263;28;20016;-83
2021/03/22 08:52:33;;;;;;;15.00;5.85;;;;;;;;;;5097761;28;20464;-83
2021/03/22 08:55:09;;;;;;;15.95;4.93;;;;;;;;;;5094894;28;20042;-83
2021/03/22 08:57:44;;;;;;;16.90;5.07;;;;;;;;;;5088208;28;20093;-84
2021/03/22 09:00:28;;;;;;;19.23;5.50;;;;;;;;;;5101557;28;20098;-83
2021/03/22 09:03:02;;;;;;;16.40;5.38;;;;;;;;;;5100346;28;20027;-82
2021/03/22 09:05:29;;;;;;;15.20;4.28;;;;;;;;;;5091121;28;20078;-83
2021/03/22 09:08:13;;;;;;;8.93;4.55;;;;;;;;;;5095803;28;20570;-83
2021/03/22 09:10:40;;;;;;;12.18;4.63;;;;;;;;;;5107951;28;20012;-84
2021/03/22 09:13:08;;;;;;;14.65;4.93;;;;;;;;;;5089169;28;20028;-83
2021/03/22 09:15:38;;;;;;;14.40;4.53;;;;;;;;;;5086017;28;20085;-83
2021/03/22 09:20:30;;;;;;;8.57;4.13;;;;;;;;;;5108958;27;20412;-83
2021/03/22 09:22:57;;;;;;;17.15;5.03;;;;;;;;;;5095416;28;20028;-84
2021/03/22 09:27:41;;;;;;;10.45;4.15;;;;;;;;;;5104467;27;20404;-82
2021/03/22 09:30:07;;;;;;;15.00;4.53;;;;;;;;;;5096717;28;20301;-83
2021/03/22 09:32:33;;;;;;;15.00;4.07;;;;;;;;;;5096236;28;20020;-83
2021/03/22 09:35:19;;;;;;;13.43;4.25;;;;;;;;;;5095501;28;20099;-82
2021/03/22 09:37:57;;;;;;;15.80;3.53;;;;;;;;;;5068208;28;20040;-82
2021/03/22 09:40:23;;;;;;;17.73;7.25;;;;;;;;;;5099034;28;20028;-82
2021/03/22 09:43:11;;;;;;;12.55;4.95;;;;;;;;;;5087325;28;20468;-83
2021/03/22 09:45:56;;;;;;;14.32;4.78;;;;;;;;;;5085259;28;20016;-83
2021/03/22 09:48:21;;;;;;;12.15;3.85;;;;;;;;;;5087218;28;20048;-83
2021/03/22 09:51:13;;;;;;;15.70;4.63;;;;;;;;;;5083320;28;20051;-83
2021/03/22 09:53:38;;;;;;;;;;;;;;;;;;5104268;28;20495;-84
2021/03/22 09:56:07;;;;;;;10.18;4.43;;;;;;;;;;5082536;28;19912;-84
2021/03/22 09:58:38;;;;;;;10.20;4.45;;;;;;;;;;5087869;28;20027;-83
2021/03/22 10:01:06;;;;;;;12.48;4.47;;;;;;;;;;5084843;28;20024;-83
2021/03/22 10:03:36;;;;;;;8.70;3.63;;;;;;;;;;5084646;28;20032;-83
2021/03/22 10:06:04;;;;;;;8.80;3.08;;;;;;;;;;5083834;28;20051;-83
2021/03/22 10:08:34;;;;;;;8.63;3.03;;;;;;;;;;5086438;28;20111;-83
2021/03/22 10:11:01;;;;;;;9.68;3.40;;;;;;;;;;5083418;28;20012;-83
2021/03/22 10:13:27;;;;;;;11.70;4.18;;;;;;;;;;5078838;28;20012;-83
2021/03/22 10:15:58;;;;;;;8.68;3.88;;;;;;;;;;5087553;28;20436;-84
2021/03/22 10:18:29;;;;;;;10.25;4.65;;;;;;;;;;5103582;28;20046;-83
2021/03/22 10:21:04;;;;;;;11.02;4.07;;;;;;;;;;5098652;28;20058;-82
2021/03/22 10:23:32;;;;;;;9.32;3.75;;;;;;;;;;5081656;28;20024;-82
2021/03/22 10:26:09;;;;;;;8.95;4.22;;;;;;;;;;5082460;28;20032;-84
2021/03/22 10:28:39;;;;;;;8.43;3.53;;;;;;;;;;5078175;28;20033;-84
2021/03/22 10:31:10;;;;;;;11.13;4.20;;;;;;;;;;5082735;28;20099;-83
2021/03/22 10:33:36;;;;;;;8.43;2.85;;;;;;;;;;5080234;28;20066;-83
2021/03/22 10:36:03;;;;;;;10.15;2.65;;;;;;;;;;5078826;28;20060;-84
2021/03/22 10:38:31;;;;;;;14.60;4.45;;;;;;;;;;5068864;28;20020;-82
2021/03/22 10:40:57;;;;;;;14.02;3.63;;;;;;;;;;5066994;28;20060;-83
2021/03/22 10:43:26;;;;;;;12.48;4.05;;;;;;;;;;5070163;28;20047;-82
2021/03/22 10:45:52;;;;;;;6.50;3.33;;;;;;;;;;5087421;28;20035;-82
2021/03/22 10:48:20;;;;;;;6.45;3.25;;;;;;;;;;5075549;28;21428;-84
2021/03/22 10:50:46;;;;;;;12.80;2.90;;;;;;;;;;5068587;28;20434;-83
2021/03/22 10:53:13;;;;;;;10.95;4.20;;;;;;;;;;5074747;28;20048;-83
2021/03/22 10:55:43;;;;;;;8.05;3.70;;;;;;;;;;5074094;28;20040;-82
2021/03/22 10:58:29;;;;;;;7.97;3.15;;;;;;;;;;5096606;28;20024;-83
2021/03/22 11:00:58;;;;;;;6.65;3.03;;;;;;;;;;5084847;28;20032;-83
2021/03/22 11:03:25;;;;;;;5.18;2.60;;;;;;;;;;5066286;28;20033;-85
2021/03/22 11:05:53;;;;;;;8.98;2.78;;;;;;;;;;5067730;28;20423;-85
2021/03/22 11:08:30;;;;;;;10.68;2.88;;;;;;;;;;5078093;28;20028;-83
2021/03/22 11:10:59;;;;;;;10.88;3.03;;;;;;;;;;5066799;28;20078;-84
2021/03/22 11:13:27;;;;;;;7.40;3.30;;;;;;;;;;5074570;28;20036;-84
2021/03/22 11:15:52;;;;;;;5.63;2.47;;;;;;;;;;5067827;28;20032;-85
2021/03/22 11:18:19;;;;;;;12.50;3.63;;;;;;;;;;5074223;28;20024;-83
2021/03/22 11:23:14;;;;;;;10.02;2.90;;;;;;;;;;5108021;27;20388;-83
2021/03/22 11:25:40;;;;;;;7.25;2.80;;;;;;;;;;5092617;28;20118;-82
2021/03/22 11:28:15;;;;;;;6.38;2.22;;;;;;;;;;5093565;28;20109;-83
2021/03/22 11:30:43;;;;;;;17.35;6.00;;;;;;;;;;5082899;28;20054;-83
2021/03/22 11:33:17;;;;;;;10.77;4.72;;;;;;;;;;5084685;28;20029;-82
2021/03/22 11:35:43;;;;;;;7.85;4.00;;;;;;;;;;5082769;28;20128;-82
2021/03/22 11:38:18;;;;;;;6.40;2.90;;;;;;;;;;5085134;28;20032;-83
2021/03/22 11:40:44;;;;;;;5.90;3.22;;;;;;;;;;5093219;28;20016;-84
2021/03/22 11:43:29;;;;;;;9.25;3.50;;;;;;;;;;5098756;28;20032;-82
2021/03/22 11:45:55;;;;;;;8.85;2.67;;;;;;;;;;5094388;28;20383;-83
2021/03/22 11:48:20;;;;;;;12.48;4.50;;;;;;;;;;5085550;28;20029;-83
2021/03/22 11:53:07;;;;;;;9.40;2.70;;;;;;;;;;5056983;28;20464;-83
2021/03/22 11:55:36;;;;;;;7.05;2.78;;;;;;;;;;5065729;28;20064;-82
2021/03/22 11:58:02;;;;;;;4.35;2.50;;;;;;;;;;5050984;28;20092;-82
2021/03/22 12:00:29;;;;;;;5.70;2.35;;;;;;;;;;5048400;28;20128;-82
2021/03/22 12:03:01;;;;;;;6.05;2.60;;;;;;;;;;5049148;28;20035;-82
2021/03/22 12:05:26;;;;;;;;;;;;;;;;;;5052054;28;20607;-82
2021/03/22 12:07:52;;;;;;;5.70;2.83;;;;;;;;;;5061976;28;19909;-83
2021/03/22 12:10:25;;;;;;;13.15;3.05;;;;;;;;;;5050071;28;20104;-83
2021/03/22 12:12:51;;;;;;;5.35;2.88;;;;;;;;;;5047391;28;20021;-83
2021/03/22 12:15:17;;;;;;;10.30;3.75;;;;;;;;;;5060419;28;20043;-83
2021/03/22 12:17:44;;;;;;;5.60;2.67;;;;;;;;;;5051256;28;20373;-82
2021/03/22 12:20:16;;;;;;;7.88;2.65;;;;;;;;;;5046211;28;20521;-83
2021/03/22 12:22:42;;;;;;;6.35;2.28;;;;;;;;;;5048802;28;20548;-83
2021/03/22 12:25:13;;;;;;;6.13;2.13;;;;;;;;;;5045578;28;20135;-86
2021/03/22 12:27:39;;;;;;;6.60;2.60;;;;;;;;;;5049097;28;20041;-84
2021/03/22 12:30:05;;;;;;;5.25;2.25;;;;;;;;;;5054894;28;20025;-82
2021/03/22 12:32:30;;;;;;;7.07;2.38;;;;;;;;;;5057490;28;20876;-82
2021/03/22 12:34:56;;;;;;;4.88;2.25;;;;;;;;;;5062121;28;20096;-82
2021/03/22 12:37:27;;;;;;;4.38;1.67;;;;;;;;;;5059333;28;20036;-82
2021/03/22 12:42:14;;;;;;;8.98;3.08;;;;;;;;;;5106983;27;20359;-83
2021/03/22 12:44:40;;;;;;;9.05;2.47;;;;;;;;;;5108584;28;20435;-82
2021/03/22 12:47:06;;;;;;;6.75;3.10;;;;;;;;;;5107625;28;20085;-84
2021/03/22 12:49:31;;;;;;;8.00;3.17;;;;;;;;;;5103825;28;20019;-83
2021/03/22 12:51:57;;;;;;;7.97;3.42;;;;;;;;;;5100553;28;20553;-83
2021/03/22 12:54:23;;;;;;;6.82;3.78;;;;;;;;;;5100711;28;20451;-83
2021/03/22 12:56:49;;;;;;;9.82;3.75;;;;;;;;;;5087158;28;20027;-82
2021/03/22 12:59:27;;;;;;;9.30;4.35;;;;;;;;;;5094118;28;20040;-83
2021/03/22 13:01:53;;;;;;;12.63;5.53;;;;;;;;;;5105241;28;20046;-83
2021/03/22 13:04:18;;;;;;;9.65;3.53;;;;;;;;;;5107433;28;20028;-83
2021/03/22 13:06:44;;;;;;;10.77;5.10;;;;;;;;;;5094725;28;20134;-84
2021/03/22 13:09:10;;;;;;;13.52;5.38;;;;;;;;;;5091839;28;20034;-83
2021/03/22 13:11:35;;;;;;;20.65;5.65;;;;;;;;;;5102958;28;20110;-83
2021/03/22 13:14:01;;;;;;;15.73;7.53;;;;;;;;;;5099119;28;20028;-84
2021/03/22 13:16:27;;;;;;;14.07;6.00;;;;;;;;;;5088736;28;20038;-84
2021/03/22 13:18:53;;;;;;;11.93;4.53;;;;;;;;;;5090866;28;20100;-84
2021/03/22 13:21:19;;;;;;;8.90;3.83;;;;;;;;;;5087941;28;20071;-83
2021/03/22 13:23:46;;;;;;;7.22;3.92;;;;;;;;;;5104267;28;20775;-84
2021/03/22 13:26:14;;;;;;;8.55;3.90;;;;;;;;;;5091480;28;20500;-83
2021/03/22 13:28:41;;;;;;;8.05;4.55;;;;;;;;;;5080807;28;20023;-82
2021/03/22 13:31:09;;;;;;;9.02;4.57;;;;;;;;;;5090949;28;20028;-83
2021/03/22 13:33:39;;;;;;;14.52;5.25;;;;;;;;;;5086630;28;20042;-82
2021/03/22 13:36:06;;;;;;;7.50;4.05;;;;;;;;;;5092439;28;20098;-83
2021/03/22 13:38:33;;;;;;;9.93;3.38;;;;;;;;;;5100738;28;20020;-83
2021/03/22 13:40:59;;;;;;;6.45;3.30;;;;;;;;;;5098979;28;20023;-82
2021/03/22 13:43:26;;;;;;;6.55;3.88;;;;;;;;;;5102127;28;20086;-84
2021/03/22 13:45:53;;;;;;;10.13;3.17;;;;;;;;;;5085832;28;20028;-82
2021/03/22 13:48:19;;;;;;;7.30;2.80;;;;;;;;;;5092025;28;20052;-83
2021/03/22 13:50:45;;;;;;;6.50;2.88;;;;;;;;;;5089963;28;20043;-82
2021/03/22 13:53:15;;;;;;;8.45;3.25;;;;;;;;;;5080317;28;20038;-82
2021/03/22 13:55:41;;;;;;;8.73;3.03;;;;;;;;;;5074530;28;20024;-83
2021/03/22 13:58:17;;;;;;;7.43;3.05;;;;;;;;;;5080469;28;20032;-83
2021/03/22 14:00:43;;;;;;;8.00;3.05;;;;;;;;;;5077138;28;20028;-82
2021/03/22 14:03:09;;;;;;;5.03;2.78;;;;;;;;;;5080253;28;20748;-82
2021/03/22 14:05:34;;;;;;;6.22;2.83;;;;;;;;;;5069719;28;20020;-82
2021/03/22 14:08:00;;;;;;;6.60;3.13;;;;;;;;;;5070964;28;20431;-83
2021/03/22 14:10:26;;;;;;;6.18;3.35;;;;;;;;;;5073774;28;20028;-84
2021/03/22 14:12:55;;;;;;;5.15;2.97;;;;;;;;;;5075915;28;20025;-82
2021/03/22 14:15:26;;;;;;;6.97;2.72;;;;;;;;;;5072356;28;20119;-83
2021/03/22 14:17:51;;;;;;;12.50;4.32;;;;;;;;;;5069137;28;20020;-82
2021/03/22 14:20:17;;;;;;;8.85;5.20;;;;;;;;;;5069459;28;20047;-82
2021/03/22 14:22:43;;;;;;;8.25;3.88;;;;;;;;;;5074262;28;20021;-83
2021/03/22 14:25:10;;;;;;;9.35;3.45;;;;;;;;;;5072970;28;20024;-82
2021/03/22 14:27:35;;;;;;;16.17;6.07;;;;;;;;;;5065787;28;20025;-82
2021/03/22 14:30:01;;;;;;;8.73;4.15;;;;;;;;;;5068900;28;20444;-83
2021/03/22 14:32:27;;;;;;;6.30;3.22;;;;;;;;;;5071256;28;20040;-83
2021/03/22 14:34:52;;;;;;;17.65;9.27;;;;;;;;;;5071027;28;20090;-82
2021/03/22 14:37:19;;;;;;;22.98;10.93;;;;;;;;;;5070810;28;20034;-82
2021/03/22 14:39:44;;;;;;;8.57;4.10;;;;;;;;;;5067085;28;20490;-82
2021/03/22 14:42:10;;;;;;;6.15;2.75;;;;;;;;;;5068288;28;20035;-82
2021/03/22 14:44:37;;;;;;;6.93;2.50;;;;;;;;;;5066634;28;20039;-82
2021/03/22 14:49:21;;;;;;;8.05;2.88;;;;;;;;;;5104765;27;20478;-80
2021/03/22 14:51:47;;;;;;;6.00;2.58;;;;;;;;;;5095318;28;20492;-81
2021/03/22 14:54:12;;;;;;;8.27;3.33;;;;;;;;;;5096413;28;20028;-80
2021/03/22 14:56:38;;;;;;;7.07;2.88;;;;;;;;;;5095421;28;20488;-82
2021/03/22 14:59:04;;;;;;;6.90;3.20;;;;;;;;;;5091053;28;20038;-82
2021/03/22 15:01:29;;;;;;;6.22;3.13;;;;;;;;;;5092291;28;20020;-82
2021/03/22 15:03:55;;;;;;;6.95;3.03;;;;;;;;;;5096579;28;20545;-81
2021/03/22 15:06:21;;;;;;;5.88;2.67;;;;;;;;;;5096510;28;20068;-82
2021/03/22 15:08:46;;;;;;;6.00;3.20;;;;;;;;;;5091817;28;20026;-82
2021/03/22 15:11:12;;;;;;;4.97;2.63;;;;;;;;;;5093314;28;20112;-82
2021/03/22 15:13:38;;;;;;;7.90;3.83;;;;;;;;;;5092620;28;20020;-85
2021/03/22 15:16:04;;;;;;;5.35;2.88;;;;;;;;;;5097598;28;20740;-83
2021/03/22 15:18:29;;;;;;;7.72;3.47;;;;;;;;;;5102346;28;20356;-83
2021/03/22 15:20:55;;;;;;;6.35;3.15;;;;;;;;;;5096778;28;20012;-83
2021/03/22 15:23:23;;;;;;;7.97;4.30;;;;;;;;;;5093455;28;20032;-84
2021/03/22 15:25:49;;;;;;;7.25;3.40;;;;;;;;;;5094595;28;20019;-83
2021/03/22 15:30:33;;;;;;;9.60;4.28;;;;;;;;;;5080400;27;20748;-83
2021/03/22 15:35:18;;;;;;;8.82;3.97;;;;;;;;;;5105551;27;20355;-83
2021/03/22 15:37:44;;;;;;;9.73;4.75;;;;;;;;;;5098859;28;20023;-84
2021/03/22 15:40:10;;;;;;;8.52;3.80;;;;;;;;;;5095947;28;20111;-84
2021/03/22 15:42:36;;;;;;;7.47;3.88;;;;;;;;;;5094409;28;20024;-85
2021/03/22 15:45:03;;;;;;;7.95;4.13;;;;;;;;;;5094538;28;20108;-83
2021/03/22 15:47:29;;;;;;;6.65;3.97;;;;;;;;;;5096316;28;20476;-83
2021/03/22 15:49:55;;;;;;;8.43;4.00;;;;;;;;;;5093775;28;20460;-85
2021/03/22 15:52:21;;;;;;;6.55;4.35;;;;;;;;;;5090585;28;20103;-83
2021/03/22 15:54:46;;;;;;;11.38;6.55;;;;;;;;;;5095997;28;20456;-84
2021/03/22 15:57:12;;;;;;;9.32;4.38;;;;;;;;;;5098636;28;20023;-83
2021/03/22 15:59:38;;;;;;;5.78;3.58;;;;;;;;;;5094846;28;20023;-84
2021/03/22 16:02:03;;;;;;;9.13;3.45;;;;;;;;;;5100218;28;20019;-83
2021/03/22 16:04:29;;;;;;;8.68;4.25;;;;;;;;;;5097060;28;20507;-83
2021/03/22 16:06:55;;;;;;;11.02;4.05;;;;;;;;;;5101233;28;20019;-83
2021/03/22 16:11:39;;;;;;;9.00;4.97;;;;;;;;;;5119712;27;20349;-82
2021/03/22 16:14:04;;;;;;;9.07;4.95;;;;;;;;;;5120437;28;20023;-82
2021/03/22 16:16:30;;;;;;;16.00;8.02;;;;;;;;;;5120026;27;20019;-84
2021/03/22 16:18:56;;;;;;;13.57;8.25;;;;;;;;;;5120400;28;20024;-82
2021/03/22 16:21:21;;;;;;;24.77;13.43;;;;;;;;;;5110109;28;20114;-83
2021/03/22 16:23:47;;;;;;;23.98;11.95;;;;;;;;;;5113217;28;20058;-83
2021/03/22 16:26:13;;;;;;;23.33;15.60;;;;;;;;;;5116436;28;20031;-83
2021/03/22 16:28:38;;;;;;;11.68;7.63;;;;;;;;;;5110229;28;20494;-82
2021/03/22 16:31:04;;;;;;;9.77;5.40;;;;;;;;;;5120106;28;20463;-83
2021/03/22 16:33:31;;;;;;;8.82;5.13;;;;;;;;;;5119514;27;20497;-82
2021/03/22 16:35:59;;;;;;;11.45;5.65;;;;;;;;;;5098408;28;20038;-82
2021/03/22 16:38:26;;;;;;;8.30;4.93;;;;;;;;;;5101984;28;20078;-83
2021/03/22 16:40:57;;;;;;;8.52;5.10;;;;;;;;;;5098039;28;20047;-82
2021/03/22 16:43:25;;;;;;;14.05;9.95;;;;;;;;;;5097848;28;20043;-82
2021/03/22 16:45:52;;;;;;;18.80;14.65;;;;;;;;;;5099671;28;20036;-84
2021/03/22 16:48:19;;;;;;;15.50;9.48;;;;;;;;;;5105120;28;20056;-83
2021/03/22 16:50:45;;;;;;;10.68;7.20;;;;;;;;;;5106904;28;20020;-83
2021/03/22 16:53:11;;;;;;;11.00;7.13;;;;;;;;;;5104014;28;20036;-83
2021/03/22 16:55:37;;;;;;;9.88;6.13;;;;;;;;;;5106145;28;20019;-83
2021/03/22 16:58:03;;;;;;;12.65;7.05;;;;;;;;;;5106955;28;20074;-82
2021/03/22 17:00:29;;;;;;;13.25;7.47;;;;;;;;;;5115741;28;20027;-82
2021/03/22 17:02:57;;;;;;;11.73;6.35;;;;;;;;;;5104069;28;20038;-83
2021/03/22 17:05:25;;;;;;;14.00;6.35;;;;;;;;;;5105542;28;20046;-82
2021/03/22 17:12:28;;;;;;;8.90;4.90;;;;;;;;;;4989710;28;20364;-83
2021/03/22 17:14:54;;;;;;;8.68;4.72;;;;;;;;;;4981681;28;20617;-82
2021/03/22 17:17:22;;;;;;;9.13;5.15;;;;;;;;;;4978422;28;20063;-82
2021/03/22 17:19:52;;;;;;;7.28;4.18;;;;;;;;;;4977482;28;20107;-85
2021/03/22 17:22:18;;;;;;;10.80;4.55;;;;;;;;;;4978326;28;20169;-83
2021/03/22 17:24:45;;;;;;;10.70;4.72;;;;;;;;;;4980421;28;20030;-83
2021/03/22 17:27:11;;;;;;;6.63;4.03;;;;;;;;;;4976338;28;20054;-83
2021/03/22 17:29:37;;;;;;;9.32;4.30;;;;;;;;;;4999860;28;20634;-82
2021/03/22 17:32:03;;;;;;;6.28;3.72;;;;;;;;;;4988533;28;20023;-82
2021/03/22 17:34:28;;;;;;;6.75;2.95;;;;;;;;;;4984872;28;20022;-84
2021/03/22 17:36:54;;;;;;;5.55;3.70;;;;;;;;;;4978121;28;20122;-82
2021/03/22 17:39:19;;;;;;;6.20;3.88;;;;;;;;;;4979038;28;20030;-83
2021/03/22 17:41:45;;;;;;;10.13;3.90;;;;;;;;;;4982289;28;20037;-82
2021/03/22 17:44:11;;;;;;;7.20;3.03;;;;;;;;;;4979811;28;20034;-83
2021/03/22 17:46:36;;;;;;;6.43;3.97;;;;;;;;;;4983777;28;20117;-83
2021/03/22 17:49:02;;;;;;;9.60;3.88;;;;;;;;;;4974001;28;20030;-82
2021/03/22 17:51:28;;;;;;;8.38;4.15;;;;;;;;;;4973192;28;20019;-82
2021/03/22 17:53:53;;;;;;;6.82;4.35;;;;;;;;;;4976059;28;20114;-82
2021/03/22 17:56:19;;;;;;;7.20;4.25;;;;;;;;;;4974230;28;20563;-83
2021/03/22 17:58:46;;;;;;;8.63;4.45;;;;;;;;;;4978674;28;20813;-84
2021/03/22 18:01:12;;;;;;;6.80;4.65;;;;;;;;;;4995464;23;20093;-77
2021/03/22 18:03:38;;;;;;;6.97;3.72;;;;;;;;;;4987636;28;20030;-77
2021/03/22 18:06:03;;;;;;;8.13;4.07;;;;;;;;;;4988690;28;20029;-77
2021/03/22 18:08:29;;;;;;;8.70;4.30;;;;;;;;;;4988864;28;20018;-77
2021/03/22 18:10:55;;;;;;;6.00;3.85;;;;;;;;;;5005905;28;20484;-77
2021/03/22 18:13:24;;;;;;;7.13;3.72;;;;;;;;;;5002137;28;20647;-77
2021/03/22 18:15:51;;;;;;;6.32;4.05;;;;;;;;;;5004530;28;20101;-77
2021/03/22 18:18:17;;;;;;;5.75;3.97;;;;;;;;;;5001287;28;20116;-77
2021/03/22 18:20:43;;;;;;;7.22;4.47;;;;;;;;;;5005155;28;20033;-77
2021/03/22 18:23:09;;;;;;;7.32;3.50;;;;;;;;;;4993427;28;20040;-77
2021/03/22 18:25:34;;;;;;;7.28;4.28;;;;;;;;;;4987541;28;20062;-77
2021/03/22 18:30:21;;;;;;;10.23;4.47;;;;;;;;;;5067001;28;20456;-77
2021/03/22 18:32:47;;;;;;;7.00;4.30;;;;;;;;;;5058758;28;20480;-78
2021/03/22 18:35:18;;;;;;;4.95;3.40;;;;;;;;;;5058353;28;20413;-77
2021/03/22 18:37:44;;;;;;;7.75;4.55;;;;;;;;;;5040295;28;20056;-77
2021/03/22 18:40:10;;;;;;;8.30;3.95;;;;;;;;;;5060167;28;20029;-76
2021/03/22 18:42:35;;;;;;;7.22;3.22;;;;;;;;;;5059501;28;20024;-77
2021/03/22 18:45:01;;;;;;;9.48;3.92;;;;;;;;;;5058029;28;20121;-77
2021/03/22 18:47:27;;;;;;;8.98;4.43;;;;;;;;;;5059998;28;20139;-76
2021/03/22 18:49:53;;;;;;;8.57;5.00;;;;;;;;;;5059639;28;20025;-77
2021/03/22 18:52:20;;;;;;;8.32;3.83;;;;;;;;;;5062115;28;20029;-78
2021/03/22 18:54:48;;;;;;;8.20;4.25;;;;;;;;;;5061499;28;20039;-78
2021/03/22 18:57:14;;;;;;;7.55;4.13;;;;;;;;;;5062681;28;20544;-76
2021/03/22 18:59:40;;;;;;;9.43;3.88;;;;;;;;;;5059509;28;20037;-77
2021/03/22 19:02:05;;;;;;;6.07;3.95;;;;;;;;;;5065341;28;20082;-77
2021/03/22 19:04:31;;;;;;;8.80;4.65;;;;;;;;;;5059706;28;20024;-78
2021/03/22 19:09:15;;;;;;;12.65;5.43;;;;;;;;;;5070305;28;20384;-78
2021/03/22 19:11:41;;;;;;;12.63;4.85;;;;;;;;;;5049782;28;20535;-77
2021/03/22 19:14:08;;;;;;;7.70;4.13;;;;;;;;;;5051024;28;20030;-77
2021/03/22 19:16:34;;;;;;;8.90;4.88;;;;;;;;;;5040561;28;20067;-78
2021/03/22 19:18:59;;;;;;;9.38;4.43;;;;;;;;;;5040408;28;20112;-76
2021/03/22 19:21:27;;;;;;;12.35;5.78;;;;;;;;;;5049107;28;20029;-76
2021/03/22 19:23:53;;;;;;;10.02;5.13;;;;;;;;;;5046351;28;20073;-77
2021/03/22 19:26:18;;;;;;;7.60;4.55;;;;;;;;;;5037962;28;20553;-77
2021/03/22 19:33:21;;;;;;;9.63;4.22;;;;;;;;;;5071171;28;20742;-77
2021/03/22 19:35:48;;;;;;;7.50;4.03;;;;;;;;;;5060237;28;20091;-77
2021/03/22 19:38:14;;;;;;;8.43;4.32;;;;;;;;;;5065364;28;20111;-77
2021/03/22 19:40:41;;;;;;;6.30;4.25;;;;;;;;;;5059114;28;20025;-77
2021/03/22 19:43:07;;;;;;;8.88;3.95;;;;;;;;;;5058589;28;20036;-77
2021/03/22 19:45:34;;;;;;;6.70;4.30;;;;;;;;;;5049642;28;20028;-78
2021/03/22 19:48:00;;;;;;;10.38;4.65;;;;;;;;;;5063147;28;20020;-77
2021/03/22 19:50:28;;;;;;;7.70;4.95;;;;;;;;;;5057078;28;20025;-77
2021/03/22 19:52:53;;;;;;;7.78;4.35;;;;;;;;;;5058667;28;20631;-77
2021/03/22 19:55:21;;;;;;;8.02;4.78;;;;;;;;;;5054004;28;20029;-76
2021/03/22 20:00:07;;;;;;;7.25;4.18;;;;;;;;;;5091099;27;20356;-77
2021/03/22 20:02:33;;;;;;;7.13;4.22;;;;;;;;;;5069110;28;20031;-77
2021/03/22 20:04:59;;;;;;;9.48;5.15;;;;;;;;;;5067092;28;20050;-77
2021/03/22 20:07:24;;;;;;;8.40;4.97;;;;;;;;;;5072590;28;20025;-77
2021/03/22 20:09:53;;;;;;;6.63;4.43;;;;;;;;;;5067984;28;20468;-78
2021/03/22 20:12:20;;;;;;;8.93;5.20;;;;;;;;;;5068310;28;20120;-78
2021/03/22 20:14:46;;;;;;;9.30;5.28;;;;;;;;;;5066115;28;20094;-77
2021/03/22 20:17:12;;;;;;;9.60;4.70;;;;;;;;;;5079593;28;20020;-76
2021/03/22 20:19:38;;;;;;;10.90;5.57;;;;;;;;;;5081073;28;20218;-76
2021/03/22 20:22:04;;;;;;;9.60;4.72;;;;;;;;;;5086864;28;20061;-76
2021/03/22 20:24:30;;;;;;;9.35;4.70;;;;;;;;;;5085962;28;20020;-76
2021/03/22 20:26:56;;;;;;;8.55;4.70;;;;;;;;;;5081093;28;20032;-77
2021/03/22 20:29:22;;;;;;;8.77;5.13;;;;;;;;;;5073239;28;20028;-79
2021/03/22 20:31:48;;;;;;;9.88;5.40;;;;;;;;;;5074379;28;20090;-78
2021/03/22 20:34:14;;;;;;;6.65;4.38;;;;;;;;;;5082298;28;20035;-77
2021/03/22 20:36:39;;;;;;;10.48;4.78;;;;;;;;;;5077909;28;20107;-77
2021/03/22 20:39:07;;;;;;;8.52;4.95;;;;;;;;;;5082232;28;20032;-77
2021/03/22 20:41:32;;;;;;;7.03;4.35;;;;;;;;;;5080421;28;20484;-77
2021/03/22 20:43:58;;;;;;;7.35;4.47;;;;;;;;;;5076492;28;20047;-77
2021/03/22 20:46:25;;;;;;;10.25;4.90;;;;;;;;;;5077281;28;20131;-77
2021/03/22 20:48:50;;;;;;;9.35;5.32;;;;;;;;;;5073577;28;20028;-78
2021/03/22 20:51:17;;;;;;;8.32;5.28;;;;;;;;;;5077037;28;20479;-78
2021/03/22 20:53:43;;;;;;;9.27;5.45;;;;;;;;;;5076073;28;20128;-78
2021/03/22 20:56:09;;;;;;;9.10;5.72;;;;;;;;;;5077016;28;20028;-77
2021/03/22 20:58:36;;;;;;;10.43;5.38;;;;;;;;;;5066752;28;20020;-77
2021/03/22 21:01:03;;;;;;;9.95;6.07;;;;;;;;;;5077103;28;20079;-77
2021/03/22 21:03:28;;;;;;;9.07;5.13;;;;;;;;;;5076571;28;20028;-78
2021/03/22 21:05:54;;;;;;;8.48;4.68;;;;;;;;;;5076496;28;20419;-77
2021/03/22 21:08:20;;;;;;;9.88;5.30;;;;;;;;;;5080799;28;20124;-77
2021/03/22 21:10:46;;;;;;;8.27;5.55;;;;;;;;;;5070063;28;20032;-78